Time;durP1;ratioP1;P1;durP2;ratioP2;P2;SDS_P1;SDS_P2;PMS_P1;PMS_P2;Temp;Humidity;BMP_temperature;BMP_pressure;BME280_temperature;BME280_humidity;BME280_pressure;Samples;Min_cycle;Max_cycle;Signal;HPM_P1;HPM_P2
2020/12/03 00:01:49;;;;;;;34.23;19.03;;;2.60;95.80;;;;;;6214413;28;20050;-76
2020/12/03 00:04:51;;;;;;;34.73;22.20;;;2.70;95.90;;;;;;6206104;28;20129;-76
2020/12/03 00:07:53;;;;;;;39.10;22.17;;;2.60;95.90;;;;;;6219030;28;20046;-75
2020/12/03 00:10:55;;;;;;;37.43;23.50;;;2.60;96.00;;;;;;6213985;28;20572;-76
2020/12/03 00:13:56;;;;;;;39.30;21.57;;;2.70;96.00;;;;;;6211532;28;20132;-75
2020/12/03 00:16:58;;;;;;;41.83;22.50;;;2.70;95.90;;;;;;6209314;28;20613;-75
2020/12/03 00:20:16;;;;;;;38.30;21.80;;;2.60;95.80;;;;;;6208944;28;20514;-75
2020/12/03 00:23:17;;;;;;;34.63;22.38;;;2.70;95.80;;;;;;6217260;28;20133;-75
2020/12/03 00:26:18;;;;;;;42.07;22.40;;;2.60;95.80;;;;;;6221348;28;20047;-75
2020/12/03 00:29:20;;;;;;;41.97;22.90;;;2.60;95.70;;;;;;6217277;28;20128;-76
2020/12/03 00:32:22;;;;;;;38.90;21.97;;;2.50;95.70;;;;;;6210845;28;20133;-75
2020/12/03 00:35:25;;;;;;;43.20;22.80;;;2.50;95.80;;;;;;6217109;28;20121;-75
2020/12/03 00:38:27;;;;;;;49.40;24.63;;;2.40;95.90;;;;;;6212700;28;20058;-75
2020/12/03 00:41:28;;;;;;;47.07;26.37;;;2.40;96.10;;;;;;6207872;28;20129;-74
2020/12/03 00:44:29;;;;;;;45.93;25.47;;;2.40;96.10;;;;;;6212243;28;20120;-75
2020/12/03 00:47:31;;;;;;;45.67;27.70;;;2.40;96.30;;;;;;6209578;28;20050;-75
2020/12/03 00:50:33;;;;;;;43.93;25.40;;;2.50;96.30;;;;;;6212939;28;20089;-75
2020/12/03 00:53:34;;;;;;;47.10;27.13;;;2.50;96.40;;;;;;6214469;28;20137;-75
2020/12/03 00:56:36;;;;;;;42.00;24.97;;;2.50;96.40;;;;;;6208995;28;20397;-75
2020/12/03 00:59:38;;;;;;;47.47;28.43;;;2.50;96.50;;;;;;6213454;28;20768;-75
2020/12/03 01:02:40;;;;;;;35.17;23.43;;;2.60;96.50;;;;;;6212792;28;20100;-75
2020/12/03 01:05:42;;;;;;;41.63;25.17;;;2.60;96.30;;;;;;6213102;28;20045;-75
2020/12/03 01:08:43;;;;;;;39.03;25.47;;;2.60;96.20;;;;;;6209114;28;20133;-75
2020/12/03 01:11:44;;;;;;;33.93;23.23;;;2.60;96.30;;;;;;6208795;28;20053;-75
2020/12/03 01:14:46;;;;;;;31.43;20.37;;;2.60;96.00;;;;;;6206133;28;20050;-74
2020/12/03 01:17:48;;;;;;;34.80;21.03;;;2.50;95.80;;;;;;6209952;28;20165;-75
2020/12/03 01:20:50;;;;;;;30.80;19.47;;;2.50;95.90;;;;;;6209617;28;20164;-76
2020/12/03 01:23:51;;;;;;;36.20;21.87;;;2.50;96.30;;;;;;6214019;28;20179;-75
2020/12/03 01:26:53;;;;;;;39.70;22.17;;;2.50;96.20;;;;;;6200634;28;20046;-75
2020/12/03 01:29:54;;;;;;;34.03;20.77;;;2.50;96.20;;;;;;6213166;28;20550;-76
2020/12/03 01:32:55;;;;;;;31.97;21.03;;;2.50;96.40;;;;;;6207952;28;20042;-75
2020/12/03 01:35:57;;;;;;;30.03;19.17;;;2.60;96.50;;;;;;6206414;28;20522;-75
2020/12/03 01:38:59;;;;;;;28.13;18.67;;;2.60;96.40;;;;;;6212717;28;20104;-75
2020/12/03 01:42:00;;;;;;;32.83;18.10;;;2.60;96.40;;;;;;6214711;28;20132;-75
2020/12/03 01:45:03;;;;;;;29.70;17.97;;;2.60;96.40;;;;;;6212440;28;20420;-75
2020/12/03 01:48:04;;;;;;;24.90;16.83;;;2.60;96.70;;;;;;6211827;28;20050;-76
2020/12/03 01:51:10;;;;;;;27.47;16.90;;;2.50;96.50;;;;;;6205532;28;20180;-75
2020/12/03 01:54:13;;;;;;;27.33;15.67;;;2.50;96.50;;;;;;6217210;28;20192;-75
2020/12/03 01:57:43;;;;;;;27.17;15.23;;;2.50;96.50;;;;;;6210678;28;20046;-75
2020/12/03 02:00:44;;;;;;;22.80;15.93;;;2.50;96.40;;;;;;6208305;28;20161;-76
2020/12/03 02:03:48;;;;;;;27.37;17.27;;;2.50;96.50;;;;;;6208134;28;20046;-75
2020/12/03 02:06:58;;;;;;;21.63;16.00;;;2.50;96.20;;;;;;6207380;28;20499;-75
2020/12/03 02:09:59;;;;;;;25.53;16.20;;;2.50;96.30;;;;;;6215745;28;20049;-76
2020/12/03 02:13:00;;;;;;;28.60;16.20;;;2.40;96.30;;;;;;6200267;28;20101;-76
2020/12/03 02:16:01;;;;;;;32.73;18.37;;;2.40;96.50;;;;;;6217729;28;20172;-75
2020/12/03 02:19:04;;;;;;;28.57;17.67;;;2.40;96.50;;;;;;6220357;28;20053;-75
2020/12/03 02:22:09;;;;;;;29.03;18.60;;;2.40;96.50;;;;;;6206003;28;20119;-75
2020/12/03 02:25:11;;;;;;;33.07;19.60;;;2.40;96.50;;;;;;6212871;28;20056;-75
2020/12/03 02:28:12;;;;;;;29.13;19.10;;;2.40;96.70;;;;;;6202459;28;20519;-75
2020/12/03 02:31:13;;;;;;;34.90;20.57;;;2.40;96.70;;;;;;6210134;28;20058;-75
2020/12/03 02:34:15;;;;;;;29.00;19.10;;;2.40;96.80;;;;;;6208776;28;20128;-75
2020/12/03 02:37:18;;;;;;;30.77;20.23;;;2.40;96.70;;;;;;6211235;28;20142;-74
2020/12/03 02:40:19;;;;;;;31.37;19.50;;;2.40;96.70;;;;;;6205573;28;20025;-75
2020/12/03 02:43:21;;;;;;;31.93;19.60;;;2.40;96.70;;;;;;6206439;28;20046;-75
2020/12/03 02:46:23;;;;;;;32.80;21.07;;;2.50;96.80;;;;;;6209694;28;20062;-75
2020/12/03 02:49:24;;;;;;;34.70;20.87;;;2.40;96.70;;;;;;6204057;28;20052;-75
2020/12/03 02:52:26;;;;;;;32.97;19.77;;;2.40;96.70;;;;;;6208673;28;20176;-75
2020/12/03 02:55:27;;;;;;;34.57;20.10;;;2.40;96.70;;;;;;6208998;28;20057;-74
2020/12/03 02:58:29;;;;;;;36.13;21.60;;;2.40;96.60;;;;;;6221002;28;20112;-75
2020/12/03 03:01:30;;;;;;;37.83;20.90;;;2.40;96.60;;;;;;6211352;28;20181;-75
2020/12/03 03:04:32;;;;;;;38.77;22.37;;;2.40;96.60;;;;;;6211315;28;20042;-75
2020/12/03 03:07:34;;;;;;;35.67;21.27;;;2.40;96.60;;;;;;6214348;28;20380;-74
2020/12/03 03:10:35;;;;;;;33.97;20.07;;;2.40;96.70;;;;;;6212260;28;20046;-75
2020/12/03 03:13:37;;;;;;;34.40;19.97;;;2.40;96.70;;;;;;6221666;28;20187;-75
2020/12/03 03:16:38;;;;;;;30.53;19.60;;;2.40;96.70;;;;;;6214667;28;20656;-75
2020/12/03 03:19:40;;;;;;;33.87;22.37;;;2.40;96.80;;;;;;6213781;28;20042;-75
2020/12/03 03:22:42;;;;;;;34.37;19.87;;;2.40;96.80;;;;;;6208884;28;20072;-74
2020/12/03 03:25:44;;;;;;;35.07;19.20;;;2.40;96.90;;;;;;6214606;28;20132;-75
2020/12/03 03:28:46;;;;;;;36.63;22.50;;;2.40;96.90;;;;;;6219185;28;20050;-75
2020/12/03 03:31:47;;;;;;;32.27;19.83;;;2.40;96.90;;;;;;6216772;28;20137;-75
2020/12/03 03:34:48;;;;;;;33.67;20.80;;;2.40;96.90;;;;;;6219003;28;20132;-74
2020/12/03 03:37:51;;;;;;;35.57;19.07;;;2.40;96.80;;;;;;6206846;28;21016;-75
2020/12/03 03:40:52;;;;;;;32.87;20.70;;;2.30;96.70;;;;;;6205881;28;20042;-75
2020/12/03 03:43:53;;;;;;;36.33;21.00;;;2.30;96.90;;;;;;6202500;28;20101;-75
2020/12/03 03:46:55;;;;;;;39.07;22.50;;;2.40;96.90;;;;;;6200193;28;20155;-75
2020/12/03 03:49:56;;;;;;;37.70;23.10;;;2.30;96.90;;;;;;6216241;28;20128;-75
2020/12/03 03:52:58;;;;;;;37.80;21.93;;;2.40;97.00;;;;;;6201938;28;20054;-75
2020/12/03 03:56:00;;;;;;;37.73;24.70;;;2.40;97.00;;;;;;6212193;28;20065;-75
2020/12/03 03:59:01;;;;;;;35.63;22.93;;;2.40;96.90;;;;;;6210688;28;20269;-75
2020/12/03 04:02:02;;;;;;;36.77;21.97;;;2.30;96.70;;;;;;6203533;28;20072;-74
2020/12/03 04:05:04;;;;;;;36.33;20.90;;;2.30;96.70;;;;;;6202808;28;20049;-75
2020/12/03 04:08:07;;;;;;;32.83;19.80;;;2.30;96.90;;;;;;6210253;28;20133;-75
2020/12/03 04:11:08;;;;;;;38.57;20.67;;;2.40;97.00;;;;;;6216985;28;20128;-74
2020/12/03 04:14:09;;;;;;;36.00;22.33;;;2.40;97.10;;;;;;6215988;28;20068;-74
2020/12/03 04:17:11;;;;;;;41.07;22.37;;;2.40;97.30;;;;;;6204790;28;20547;-75
2020/12/03 04:20:15;;;;;;;46.47;21.53;;;2.40;97.10;;;;;;6202124;28;20149;-74
2020/12/03 04:23:17;;;;;;;39.00;23.20;;;2.40;96.90;;;;;;6209151;28;20389;-75
2020/12/03 04:26:18;;;;;;;41.83;24.33;;;2.40;97.00;;;;;;6209870;28;20050;-75
2020/12/03 04:29:20;;;;;;;38.90;23.67;;;2.40;97.00;;;;;;6212571;28;20100;-75
2020/12/03 04:32:21;;;;;;;38.37;24.37;;;2.40;97.00;;;;;;6211409;28;20234;-75
2020/12/03 04:35:22;;;;;;;41.73;22.80;;;2.40;97.10;;;;;;6215179;28;20054;-75
2020/12/03 04:38:24;;;;;;;42.60;23.33;;;2.40;97.10;;;;;;6211891;28;20137;-75
2020/12/03 04:41:26;;;;;;;40.77;25.27;;;2.40;97.10;;;;;;6213999;28;20125;-74
2020/12/03 04:44:35;;;;;;;42.03;24.30;;;2.40;97.10;;;;;;6206272;28;20049;-74
2020/12/03 04:47:56;;;;;;;39.27;25.83;;;2.40;97.10;;;;;;6212747;28;20048;-75
2020/12/03 04:51:11;;;;;;;47.93;26.23;;;2.40;97.10;;;;;;6209580;28;20045;-75
2020/12/03 04:54:24;;;;;;;40.37;25.53;;;2.40;97.10;;;;;;6210638;28;20523;-74
2020/12/03 04:57:30;;;;;;;41.83;26.77;;;2.40;97.10;;;;;;6213867;28;20057;-75
2020/12/03 05:00:43;;;;;;;45.17;25.47;;;2.40;97.10;;;;;;6209267;28;20165;-75
2020/12/03 05:04:02;;;;;;;48.00;25.50;;;2.40;97.00;;;;;;6207256;28;20188;-75
2020/12/03 05:07:07;;;;;;;46.28;26.23;;;2.40;97.00;;;;;;6209992;28;20050;-75
2020/12/03 05:10:22;;;;;;;44.90;25.10;;;2.40;97.10;;;;;;6203714;28;20050;-74
2020/12/03 05:13:25;;;;;;;49.90;29.47;;;2.40;97.10;;;;;;6210302;28;20104;-74
2020/12/03 05:16:34;;;;;;;48.17;25.47;;;2.40;97.10;;;;;;6211300;28;20042;-74
2020/12/03 05:19:40;;;;;;;45.93;26.13;;;2.40;97.00;;;;;;6220769;28;20050;-74
2020/12/03 05:22:42;;;;;;;46.20;25.87;;;2.40;96.90;;;;;;6212134;28;20050;-75
2020/12/03 05:25:46;;;;;;;45.43;27.47;;;2.40;97.10;;;;;;6213149;28;20064;-75
2020/12/03 05:28:53;;;;;;;57.40;31.17;;;2.40;97.10;;;;;;6214110;28;20415;-75
2020/12/03 05:31:55;;;;;;;54.37;30.23;;;2.40;97.20;;;;;;6209008;28;20181;-74
2020/12/03 05:34:57;;;;;;;40.43;26.90;;;2.50;97.30;;;;;;6222014;28;20124;-75
2020/12/03 05:37:58;;;;;;;52.30;26.87;;;2.50;97.30;;;;;;6208754;28;20082;-75
2020/12/03 05:41:03;;;;;;;47.93;27.83;;;2.50;97.30;;;;;;6219658;28;20041;-75
2020/12/03 05:44:34;;;;;;;46.20;27.77;;;2.50;97.30;;;;;;6208448;28;20049;-75
2020/12/03 05:47:38;;;;;;;48.33;29.03;;;2.50;97.30;;;;;;6196977;28;20070;-74
2020/12/03 05:50:41;;;;;;;46.67;30.50;;;2.50;97.30;;;;;;6215173;28;20045;-74
2020/12/03 05:53:52;;;;;;;48.77;26.53;;;2.50;97.30;;;;;;6206000;28;20085;-74
2020/12/03 05:56:54;;;;;;;57.20;30.80;;;2.60;97.30;;;;;;6215236;28;20060;-74
2020/12/03 06:00:08;;;;;;;46.90;27.77;;;2.50;97.40;;;;;;6216828;28;20132;-74
2020/12/03 06:03:31;;;;;;;49.37;30.10;;;2.60;97.40;;;;;;6224522;28;20052;-74
2020/12/03 06:07:16;;;;;;;56.03;30.07;;;2.50;97.20;;;;;;6210159;28;20486;-74
2020/12/03 06:10:43;;;;;;;48.47;28.27;;;2.50;97.20;;;;;;6212246;28;20052;-74
2020/12/03 06:14:07;;;;;;;51.90;30.10;;;2.50;97.30;;;;;;6208902;28;20061;-75
2020/12/03 06:17:21;;;;;;;45.73;26.67;;;2.50;97.10;;;;;;6207829;28;20201;-74
2020/12/03 06:20:35;;;;;;;49.33;30.63;;;2.50;97.30;;;;;;6206649;28;20050;-74
2020/12/03 06:23:51;;;;;;;59.20;29.63;;;2.50;97.40;;;;;;6212003;28;20128;-74
2020/12/03 06:27:26;;;;;;;45.57;26.50;;;2.50;97.40;;;;;;6209369;28;20076;-74
2020/12/03 06:30:30;;;;;;;48.07;28.50;;;2.50;97.40;;;;;;6209497;28;20173;-74
2020/12/03 06:33:37;;;;;;;56.03;29.97;;;2.60;97.30;;;;;;6212174;28;20050;-76
2020/12/03 06:36:41;;;;;;;52.10;28.77;;;2.60;97.30;;;;;;6206516;28;20046;-76
2020/12/03 06:39:48;;;;;;;53.23;29.63;;;2.60;97.30;;;;;;6209918;28;20504;-75
2020/12/03 06:42:54;;;;;;;48.78;26.73;;;2.60;97.20;;;;;;6204588;28;21634;-75
2020/12/03 06:46:27;;;;;;;44.10;25.83;;;2.60;97.10;;;;;;6208682;28;20042;-76
2020/12/03 06:49:55;;;;;;;52.57;27.10;;;2.60;97.10;;;;;;6212203;28;20169;-76
2020/12/03 06:53:16;;;;;;;49.92;26.67;;;2.60;97.10;;;;;;6216024;28;20046;-76
2020/12/03 06:57:08;;;;;;;53.20;27.63;;;2.60;97.10;;;;;;6217808;28;20523;-75
2020/12/03 07:00:47;;;;;;;48.77;27.23;;;2.70;97.10;;;;;;6205430;28;20182;-76
2020/12/03 07:04:38;;;;;;;44.93;26.73;;;2.70;97.10;;;;;;6204065;28;20137;-75
2020/12/03 07:08:01;;;;;;;46.23;26.43;;;2.70;97.00;;;;;;6210923;28;20049;-76
2020/12/03 07:11:47;;;;;;;43.80;25.43;;;2.70;97.10;;;;;;6231143;28;20515;-76
2020/12/03 07:15:31;;;;;;;52.57;26.93;;;2.80;97.00;;;;;;6228529;28;20179;-76
2020/12/03 07:19:20;;;;;;;44.43;24.43;;;2.80;96.90;;;;;;6228063;28;20081;-76
2020/12/03 07:22:27;;;;;;;40.93;25.07;;;2.80;96.70;;;;;;6234477;28;20136;-76
2020/12/03 07:25:30;;;;;;;49.75;25.88;;;2.80;96.70;;;;;;6230699;28;20475;-76
2020/12/03 07:28:36;;;;;;;46.43;23.63;;;2.80;96.80;;;;;;6239100;28;20126;-76
2020/12/03 07:31:39;;;;;;;51.50;27.83;;;2.80;96.70;;;;;;6222151;28;20069;-76
2020/12/03 07:34:46;;;;;;;48.70;26.77;;;2.90;96.80;;;;;;6218554;28;20057;-75
2020/12/03 07:37:54;;;;;;;44.00;22.90;;;2.90;96.90;;;;;;6228327;28;20027;-75
2020/12/03 07:40:57;;;;;;;42.97;24.05;;;2.90;96.70;;;;;;6238573;28;20096;-76
2020/12/03 07:44:07;;;;;;;44.60;23.40;;;2.90;96.80;;;;;;6255517;28;20038;-75
2020/12/03 07:47:20;;;;;;;46.77;26.80;;;2.90;96.60;;;;;;6252082;28;20046;-74
2020/12/03 07:50:44;;;;;;;49.27;23.97;;;3.00;96.80;;;;;;6262895;28;20114;-75
2020/12/03 07:53:46;;;;;;;46.93;26.00;;;3.00;96.90;;;;;;6228295;28;20047;-75
2020/12/03 07:56:48;;;;;;;47.17;28.27;;;3.00;96.80;;;;;;6237705;28;20064;-75
2020/12/03 07:59:50;;;;;;;43.47;23.83;;;3.00;96.70;;;;;;6239533;28;23068;-75
2020/12/03 08:02:53;;;;;;;43.27;27.13;;;3.00;96.70;;;;;;6237813;28;20102;-75
2020/12/03 08:05:58;;;;;;;48.17;26.73;;;3.10;96.70;;;;;;6234920;28;20050;-75
2020/12/03 08:09:37;;;;;;;45.13;26.67;;;3.10;96.70;;;;;;6235515;28;20168;-75
2020/12/03 08:13:05;;;;;;;42.38;23.95;;;3.10;96.40;;;;;;6186010;28;20047;-75
2020/12/03 08:16:10;;;;;;;36.65;21.80;;;3.20;96.30;;;;;;6189701;28;20042;-75
2020/12/03 08:19:20;;;;;;;43.33;24.57;;;3.20;96.20;;;;;;6223194;28;20056;-75
2020/12/03 08:22:23;;;;;;;31.73;21.40;;;3.30;95.90;;;;;;6245763;28;20128;-75
2020/12/03 08:25:27;;;;;;;36.27;21.87;;;3.30;95.80;;;;;;6243322;28;20057;-75
2020/12/03 08:28:31;;;;;;;35.77;19.47;;;3.30;95.70;;;;;;6227666;28;20140;-76
2020/12/03 08:31:32;;;;;;;32.57;20.53;;;3.40;95.60;;;;;;6237280;28;20038;-76
2020/12/03 08:34:34;;;;;;;43.40;21.63;;;3.40;95.20;;;;;;6243124;28;20088;-76
2020/12/03 08:37:36;;;;;;;40.30;23.30;;;3.40;95.30;;;;;;6246134;28;20053;-76
2020/12/03 08:40:39;;;;;;;35.80;21.10;;;3.40;94.40;;;;;;6229452;28;20130;-76
2020/12/03 08:43:43;;;;;;;31.30;21.00;;;3.50;94.60;;;;;;6235093;28;20213;-76
2020/12/03 08:46:45;;;;;;;30.83;19.97;;;3.60;94.50;;;;;;6186916;28;20050;-76
2020/12/03 08:49:47;;;;;;;34.60;20.93;;;3.60;94.40;;;;;;6227419;28;20045;-76
2020/12/03 08:52:48;;;;;;;38.07;19.03;;;3.60;94.10;;;;;;6226796;28;20519;-77
2020/12/03 08:55:50;;;;;;;31.03;18.60;;;3.70;94.20;;;;;;6245235;28;20057;-77
2020/12/03 08:58:59;;;;;;;27.67;17.13;;;3.70;94.20;;;;;;6237702;28;20073;-77
2020/12/03 09:02:07;;;;;;;26.57;15.30;;;3.70;94.30;;;;;;6225378;28;20046;-77
2020/12/03 09:05:11;;;;;;;29.38;17.48;;;3.80;94.20;;;;;;6234457;28;20049;-76
2020/12/03 09:08:18;;;;;;;24.77;16.80;;;3.80;94.20;;;;;;6233564;28;20055;-77
2020/12/03 09:11:21;;;;;;;30.27;18.77;;;3.80;94.10;;;;;;6233219;28;20049;-77
2020/12/03 09:14:23;;;;;;;29.67;15.93;;;4.00;93.90;;;;;;6233149;28;20057;-77
2020/12/03 09:17:26;;;;;;;21.83;15.70;;;4.10;93.80;;;;;;6229396;28;20047;-77
2020/12/03 09:20:28;;;;;;;20.53;14.23;;;4.20;93.20;;;;;;6238845;28;20057;-77
2020/12/03 09:23:32;;;;;;;30.15;14.23;;;4.30;92.60;;;;;;6237075;28;20050;-77
2020/12/03 09:26:34;;;;;;;17.73;12.75;;;4.40;92.10;;;;;;6232429;28;20053;-77
2020/12/03 09:29:36;;;;;;;17.40;11.05;;;4.50;91.60;;;;;;6245836;28;20046;-75
2020/12/03 09:32:39;;;;;;;16.77;11.15;;;4.50;91.30;;;;;;6230547;28;20050;-77
2020/12/03 09:35:42;;;;;;;16.75;11.95;;;4.50;91.30;;;;;;6228393;28;20042;-77
2020/12/03 09:38:47;;;;;;;15.18;11.13;;;4.50;90.50;;;;;;6241352;28;20606;-76
2020/12/03 09:41:49;;;;;;;13.68;10.52;;;4.40;90.10;;;;;;6232539;28;20049;-76
2020/12/03 09:44:57;;;;;;;16.20;11.55;;;4.50;90.40;;;;;;6231605;28;20522;-76
2020/12/03 09:48:00;;;;;;;17.02;10.43;;;4.50;89.50;;;;;;6233929;28;20041;-76
2020/12/03 09:51:04;;;;;;;20.33;11.43;;;4.60;89.60;;;;;;6234709;28;20089;-76
2020/12/03 09:54:06;;;;;;;15.48;11.05;;;4.70;89.40;;;;;;6234475;28;20050;-76
2020/12/03 09:57:12;;;;;;;21.15;12.43;;;4.70;89.50;;;;;;6240357;28;20045;-76
2020/12/03 10:00:17;;;;;;;16.55;11.52;;;4.90;89.50;;;;;;6213193;28;20042;-75
2020/12/03 10:03:51;;;;;;;16.25;12.68;;;4.90;88.80;;;;;;6234919;28;20097;-76
2020/12/03 10:07:06;;;;;;;17.30;11.73;;;5.00;87.90;;;;;;6191741;28;20070;-76
2020/12/03 10:10:21;;;;;;;20.77;11.52;;;5.00;87.00;;;;;;6236697;28;20172;-77
2020/12/03 10:13:38;;;;;;;16.80;11.82;;;5.00;87.60;;;;;;6240033;28;20129;-75
2020/12/03 10:16:43;;;;;;;21.65;14.18;;;5.00;87.70;;;;;;6232512;28;20079;-77
2020/12/03 10:19:47;;;;;;;18.48;10.50;;;5.00;88.20;;;;;;6236452;28;20088;-77
2020/12/03 10:22:59;;;;;;;15.68;11.85;;;5.00;87.60;;;;;;6229091;28;20049;-78
2020/12/03 10:26:14;;;;;;;17.25;12.52;;;5.00;87.70;;;;;;6211680;28;20060;-77
2020/12/03 10:29:25;;;;;;;19.85;12.35;;;5.00;87.60;;;;;;6239567;28;20050;-78
2020/12/03 10:32:27;;;;;;;19.45;12.15;;;5.00;87.50;;;;;;6235056;28;20051;-77
2020/12/03 10:35:29;;;;;;;19.45;14.40;;;5.00;87.20;;;;;;6220725;28;20042;-77
2020/12/03 10:38:40;;;;;;;16.52;12.57;;;5.10;87.80;;;;;;6236370;28;20115;-76
2020/12/03 10:41:45;;;;;;;19.63;12.35;;;5.10;87.30;;;;;;6247853;28;20171;-76
2020/12/03 10:44:49;;;;;;;13.77;10.88;;;5.10;87.60;;;;;;6240086;28;20057;-76
2020/12/03 10:47:56;;;;;;;16.00;10.50;;;5.20;87.40;;;;;;6226374;28;20060;-76
2020/12/03 10:50:59;;;;;;;14.38;9.25;;;5.20;87.10;;;;;;6221976;28;20521;-75
2020/12/03 10:54:02;;;;;;;14.60;9.85;;;5.10;85.20;;;;;;6231543;28;20041;-76
2020/12/03 10:57:05;;;;;;;12.57;8.52;;;5.10;84.50;;;;;;6235555;28;20052;-76
2020/12/03 11:00:08;;;;;;;12.02;9.18;;;5.10;84.90;;;;;;6229834;28;20097;-76
2020/12/03 11:03:17;;;;;;;12.27;9.57;;;5.10;84.30;;;;;;6234837;28;20048;-78
2020/12/03 11:06:24;;;;;;;9.45;7.70;;;5.10;85.40;;;;;;6238152;28;20140;-76
2020/12/03 11:09:28;;;;;;;10.98;6.70;;;5.20;84.70;;;;;;6232108;28;20128;-75
2020/12/03 11:12:30;;;;;;;9.05;6.88;;;5.20;84.20;;;;;;6237193;28;20139;-76
2020/12/03 11:15:31;;;;;;;9.07;6.13;;;5.30;84.80;;;;;;6230238;28;20061;-76
2020/12/03 11:18:40;;;;;;;9.30;6.80;;;5.30;83.90;;;;;;6231753;28;20057;-76
2020/12/03 11:21:47;;;;;;;8.75;6.53;;;5.30;84.10;;;;;;6231892;28;20054;-76
2020/12/03 11:24:59;;;;;;;11.67;5.90;;;5.40;82.80;;;;;;6231618;28;20053;-76
2020/12/03 11:28:29;;;;;;;7.70;4.88;;;5.30;84.00;;;;;;6228060;28;20037;-76
2020/12/03 11:31:31;;;;;;;9.35;6.18;;;5.50;84.20;;;;;;6232751;28;20158;-76
2020/12/03 11:34:36;;;;;;;6.18;4.90;;;5.50;84.10;;;;;;6245157;28;20517;-76
2020/12/03 11:37:37;;;;;;;6.07;4.90;;;5.60;84.10;;;;;;6233701;28;20503;-76
2020/12/03 11:40:43;;;;;;;7.10;3.70;;;5.70;83.30;;;;;;6234675;28;20104;-76
2020/12/03 11:47:36;;;;;;;5.72;3.45;;;5.80;82.10;;;;;;6202166;28;20049;-76
2020/12/03 11:50:38;;;;;;;5.82;4.47;;;5.90;80.90;;;;;;6239180;28;20192;-76
2020/12/03 11:53:40;;;;;;;22.30;7.00;;;5.90;80.30;;;;;;6245177;28;20128;-75
2020/12/03 11:56:42;;;;;;;6.07;2.88;;;5.90;82.00;;;;;;6237660;28;20550;-75
2020/12/03 11:59:43;;;;;;;15.57;5.53;;;6.00;81.80;;;;;;6242831;28;20195;-75
2020/12/03 12:02:45;;;;;;;8.63;5.35;;;6.10;82.30;;;;;;6227508;28;20392;-75
2020/12/03 12:05:51;;;;;;;6.05;4.22;;;6.20;80.80;;;;;;6232142;28;20064;-76
2020/12/03 12:08:57;;;;;;;8.65;3.38;;;6.30;80.60;;;;;;6212041;28;20081;-75
2020/12/03 12:11:59;;;;;;;4.38;3.35;;;6.30;80.80;;;;;;6237895;28;20041;-76
2020/12/03 12:15:00;;;;;;;6.72;3.30;;;6.30;79.50;;;;;;6237966;28;20594;-76
2020/12/03 12:18:01;;;;;;;5.43;3.30;;;6.20;78.90;;;;;;6242654;28;20114;-75
2020/12/03 12:21:03;;;;;;;6.68;4.32;;;6.20;79.50;;;;;;6238464;28;20173;-76
2020/12/03 12:24:04;;;;;;;7.15;4.00;;;6.20;78.30;;;;;;6233821;28;20494;-76
2020/12/03 12:27:07;;;;;;;5.90;3.17;;;6.20;78.70;;;;;;6236835;28;20061;-76
2020/12/03 12:30:09;;;;;;;5.68;3.90;;;6.30;78.80;;;;;;6241534;28;20195;-75
2020/12/03 12:33:10;;;;;;;6.63;4.88;;;6.30;77.50;;;;;;6230208;28;20511;-75
2020/12/03 12:36:11;;;;;;;4.45;3.85;;;6.30;79.20;;;;;;6235343;28;20105;-76
2020/12/03 12:39:14;;;;;;;7.30;5.20;;;6.40;79.10;;;;;;6226964;28;20047;-75
2020/12/03 12:42:16;;;;;;;4.70;3.65;;;6.50;84.30;;;;;;6240846;28;20041;-75
2020/12/03 12:45:18;;;;;;;6.53;4.28;;;6.60;79.20;;;;;;6240766;28;20042;-75
2020/12/03 12:48:20;;;;;;;6.05;4.72;;;6.70;79.90;;;;;;6237778;28;20045;-75
2020/12/03 12:51:22;;;;;;;4.65;3.95;;;6.80;76.40;;;;;;6227782;28;20060;-75
2020/12/03 12:54:24;;;;;;;5.43;4.25;;;6.80;77.00;;;;;;6223158;28;20503;-76
2020/12/03 12:57:27;;;;;;;6.20;4.13;;;6.80;77.60;;;;;;6241746;28;20049;-75
2020/12/03 13:00:29;;;;;;;6.80;5.18;;;6.70;76.20;;;;;;6231854;28;20129;-76
2020/12/03 13:03:30;;;;;;;6.45;4.60;;;6.60;77.40;;;;;;6228483;28;20124;-75
2020/12/03 13:06:31;;;;;;;6.45;4.35;;;6.70;74.70;;;;;;6230731;28;20419;-76
2020/12/03 13:09:32;;;;;;;6.10;3.72;;;6.80;76.50;;;;;;6243718;28;20133;-75
2020/12/03 13:12:35;;;;;;;5.63;4.95;;;6.80;77.40;;;;;;6235297;28;20050;-76
2020/12/03 13:15:36;;;;;;;5.28;3.58;;;6.90;74.90;;;;;;6235819;28;20121;-75
2020/12/03 13:18:37;;;;;;;5.80;5.05;;;7.00;75.00;;;;;;6248264;28;20041;-75
2020/12/03 13:21:39;;;;;;;8.80;4.50;;;7.10;76.00;;;;;;6245826;28;20049;-75
2020/12/03 13:24:40;;;;;;;24.50;13.63;;;7.10;77.00;;;;;;6231822;28;20571;-75
2020/12/03 13:27:42;;;;;;;5.35;4.43;;;7.30;78.40;;;;;;6230295;28;20065;-76
2020/12/03 13:30:44;;;;;;;5.78;4.18;;;7.40;77.20;;;;;;6236445;28;20140;-75
2020/12/03 13:33:45;;;;;;;4.43;3.72;;;7.50;76.90;;;;;;6246573;28;20624;-75
2020/12/03 13:36:46;;;;;;;6.72;3.42;;;7.90;79.60;;;;;;6232119;28;20052;-77
2020/12/03 13:39:48;;;;;;;9.20;4.57;;;7.90;76.90;;;;;;6239369;28;20514;-76
2020/12/03 13:42:50;;;;;;;4.85;3.55;;;7.80;75.60;;;;;;6228362;28;20137;-76
2020/12/03 13:45:52;;;;;;;6.10;3.80;;;7.80;74.20;;;;;;6233954;28;20088;-76
2020/12/03 13:48:54;;;;;;;5.65;3.80;;;7.80;75.40;;;;;;6231265;28;20049;-76
2020/12/03 13:51:55;;;;;;;5.05;3.78;;;7.80;75.00;;;;;;6231663;28;20124;-75
2020/12/03 13:54:56;;;;;;;8.98;4.28;;;7.60;72.90;;;;;;6227830;28;20508;-74
2020/12/03 13:58:00;;;;;;;8.77;3.70;;;7.50;74.20;;;;;;6235846;28;20064;-76
2020/12/03 14:01:01;;;;;;;4.57;3.88;;;7.50;87.90;;;;;;6236890;28;20123;-76
2020/12/03 14:04:03;;;;;;;6.25;3.08;;;7.20;75.80;;;;;;6235734;28;20047;-76
2020/12/03 14:07:04;;;;;;;6.20;3.92;;;7.20;76.30;;;;;;6236090;28;20065;-76
2020/12/03 14:10:05;;;;;;;3.85;3.55;;;7.30;76.20;;;;;;6231918;28;20095;-76
2020/12/03 14:13:07;;;;;;;6.32;4.05;;;7.50;82.80;;;;;;6236693;28;20504;-77
2020/12/03 14:16:09;;;;;;;3.88;3.05;;;7.50;76.80;;;;;;6234670;28;20554;-75
2020/12/03 14:19:10;;;;;;;6.40;3.33;;;7.40;76.40;;;;;;6236644;28;20415;-76
2020/12/03 14:22:12;;;;;;;4.03;2.78;;;7.30;76.90;;;;;;6235415;28;20084;-76
2020/12/03 14:25:15;;;;;;;6.55;3.55;;;7.30;77.00;;;;;;6232512;28;20041;-75
2020/12/03 14:28:17;;;;;;;3.30;2.75;;;7.20;76.50;;;;;;6232483;28;20048;-76
2020/12/03 14:31:19;;;;;;;6.47;3.58;;;7.10;75.70;;;;;;6234553;28;20152;-76
2020/12/03 14:34:20;;;;;;;3.80;3.15;;;7.50;77.90;;;;;;6242222;28;20108;-76
2020/12/03 14:37:22;;;;;;;4.35;3.60;;;7.00;77.50;;;;;;6237512;28;20061;-75
2020/12/03 14:40:23;;;;;;;5.28;3.30;;;6.90;78.40;;;;;;6249007;28;20049;-76
2020/12/03 14:43:25;;;;;;;6.25;3.90;;;6.80;79.50;;;;;;6248422;28;20053;-76
2020/12/03 14:46:27;;;;;;;4.25;3.85;;;6.70;80.10;;;;;;6244700;28;20057;-76
2020/12/03 14:49:28;;;;;;;3.25;2.58;;;7.30;84.20;;;;;;6241660;28;20056;-76
2020/12/03 14:52:30;;;;;;;6.43;2.97;;;6.60;87.60;;;;;;6248349;28;20060;-75
2020/12/03 14:55:35;;;;;;;4.55;3.55;;;6.00;82.80;;;;;;6241178;28;20646;-75
2020/12/03 14:58:38;;;;;;;4.72;2.63;;;6.10;83.80;;;;;;6242841;28;20053;-75
2020/12/03 15:01:39;;;;;;;5.85;2.83;;;5.90;84.90;;;;;;6242933;28;20132;-75
2020/12/03 15:04:41;;;;;;;6.97;3.47;;;5.80;85.40;;;;;;6242768;28;20079;-75
2020/12/03 15:07:43;;;;;;;3.45;1.95;;;5.60;84.50;;;;;;6243933;28;20049;-76
2020/12/03 15:10:48;;;;;;;3.25;2.70;;;5.40;84.80;;;;;;6234854;28;20053;-74
2020/12/03 15:13:50;;;;;;;3.33;3.03;;;5.20;85.40;;;;;;6243164;28;20398;-75
2020/12/03 15:16:52;;;;;;;4.75;2.78;;;5.10;85.50;;;;;;6236829;28;20575;-76
2020/12/03 15:19:53;;;;;;;3.72;3.08;;;4.90;86.40;;;;;;6237399;28;20041;-77
2020/12/03 15:22:55;;;;;;;6.55;3.42;;;4.70;87.30;;;;;;6240211;28;20119;-77
2020/12/03 15:25:56;;;;;;;4.90;3.05;;;4.60;87.90;;;;;;6241778;28;20053;-77
2020/12/03 15:28:58;;;;;;;8.70;3.63;;;4.50;88.20;;;;;;6246668;28;20065;-77
2020/12/03 15:32:00;;;;;;;7.25;3.90;;;4.40;88.50;;;;;;6239107;28;20042;-76
2020/12/03 15:35:01;;;;;;;6.70;3.28;;;4.30;88.90;;;;;;6238112;28;20048;-77
2020/12/03 15:38:03;;;;;;;3.95;2.47;;;4.30;89.30;;;;;;6231989;28;20081;-77
2020/12/03 15:41:04;;;;;;;6.68;2.60;;;4.20;89.30;;;;;;6233289;28;20061;-77
2020/12/03 15:44:06;;;;;;;4.30;3.85;;;4.10;89.80;;;;;;6230701;28;20439;-76
2020/12/03 15:47:09;;;;;;;6.55;3.88;;;3.90;89.90;;;;;;6232458;28;20065;-76
2020/12/03 15:50:11;;;;;;;6.68;4.40;;;4.00;89.90;;;;;;6239643;28;20049;-77
2020/12/03 15:53:12;;;;;;;6.20;4.03;;;4.00;90.00;;;;;;6238125;28;20046;-77
2020/12/03 15:56:13;;;;;;;5.00;3.45;;;4.00;90.00;;;;;;6245134;28;20132;-75
2020/12/03 15:59:16;;;;;;;5.63;3.85;;;4.00;90.10;;;;;;6243436;28;20054;-76
2020/12/03 16:02:18;;;;;;;6.28;3.50;;;3.90;90.10;;;;;;6238545;28;20038;-75
2020/12/03 16:05:19;;;;;;;4.55;3.42;;;3.90;90.10;;;;;;6241271;28;20037;-75